| time (UTC) | temp F | wind direction | speed MPH | gust MPH | rain 1hr in | rain 24hr in | rain mn in | humidity % | barometer mb |
| 20260906161558 | 73 | 0 | 0.0 | 0.0 | 0.00 | 0.03 | 0.03 | 88 | 1011.8 |
| 20260906160056 | 73 | 0 | 0.0 | 0.0 | 0.00 | 0.03 | 0.03 | 88 | 1011.8 |
| 20260906154547 | 72 | 0 | 0.0 | 0.0 | 0.00 | 0.03 | 0.03 | 86 | 1011.8 |
| 20260906153048 | 71 | 0 | 0.0 | 0.0 | 0.00 | 0.03 | 0.03 | 85 | 1012.0 |
| 20260906151546 | 70 | 0 | 0.0 | 0.0 | 0.00 | 0.03 | 0.03 | 87 | 1011.9 |
| 20260906150053 | 70 | 0 | 0.0 | 0.0 | 0.00 | 0.03 | 0.03 | 90 | 1011.9 |
| 20260906144603 | 70 | 0 | 0.0 | 0.0 | 0.00 | 0.03 | 0.03 | 90 | 1011.8 |
| 20260906143050 | 70 | 0 | 0.0 | 0.0 | 0.00 | 0.03 | 0.03 | 90 | 1011.6 |
| 20260906141548 | 69 | 0 | 0.0 | 0.0 | 0.00 | 0.03 | 0.03 | 91 | 1011.5 |
| 20260906140045 | 69 | 0 | 0.0 | 0.0 | 0.00 | 0.03 | 0.03 | 91 | 1011.2 |
| 20260906134548 | 69 | 0 | 0.0 | 0.0 | 0.00 | 0.03 | 0.03 | 91 | 1011.1 |
| 20260906133048 | 69 | 0 | 0.0 | 0.0 | 0.00 | 0.03 | 0.03 | 92 | 1010.8 |
| 20260906131549 | 69 | 0 | 0.0 | 0.0 | 0.00 | 0.03 | 0.03 | 92 | 1010.8 |
| 20260906130050 | 69 | 0 | 0.0 | 0.0 | 0.00 | 0.03 | 0.03 | 92 | 1010.4 |
| 20260906124542 | 68 | 0 | 0.0 | 0.0 | 0.00 | 0.03 | 0.03 | 92 | 1010.3 |
| 20260906123050 | 68 | 0 | 0.0 | 0.0 | 0.00 | 0.03 | 0.03 | 92 | 1010.4 |
| 20260906121547 | 68 | 0 | 0.0 | 0.0 | 0.00 | 0.03 | 0.03 | 92 | 1010.6 |
| 20260906120049 | 68 | 0 | 0.0 | 0.0 | 0.00 | 0.03 | 0.03 | 92 | 1010.5 |
| 20260906114550 | 68 | 0 | 0.0 | 0.0 | 0.00 | 0.03 | 0.03 | 92 | 1010.6 |
| 20260906113058 | 67 | 0 | 0.0 | 0.0 | 0.00 | 0.03 | 0.03 | 92 | 1010.5 |
| 20260906111549 | 67 | 0 | 0.0 | 0.0 | 0.00 | 0.03 | 0.03 | 92 | 1010.8 |
| 20260906110050 | 67 | 0 | 0.0 | 0.0 | 0.00 | 0.03 | 0.03 | 92 | 1010.8 |
| 20260906104605 | 67 | 0 | 0.0 | 0.0 | 0.00 | 0.03 | 0.03 | 92 | 1010.9 |
| 20260906103048 | 66 | 0 | 0.0 | 0.0 | 0.00 | 0.03 | 0.03 | 93 | 1010.9 |
| 20260906101547 | 66 | 0 | 0.0 | 0.0 | 0.00 | 0.03 | 0.03 | 93 | 1010.8 |
| 20260906100053 | 66 | 0 | 1.0 | 2.0 | 0.00 | 0.03 | 0.03 | 93 | 1010.8 |
| 20260906094622 | 66 | 0 | 0.0 | 2.0 | 0.00 | 0.03 | 0.03 | 92 | 1010.8 |
| 20260906093047 | 67 | 0 | 0.0 | 1.0 | 0.02 | 0.03 | 0.03 | 92 | 1011.0 |
| 20260906091555 | 67 | 0 | 0.0 | 2.0 | 0.03 | 0.03 | 0.03 | 92 | 1011.1 |
| 20260906090052 | 67 | 0 | 0.0 | 0.0 | 0.03 | 0.03 | 0.03 | 91 | 1011.0 |
| 20260906084547 | 70 | 0 | 0.0 | 0.0 | 0.02 | 0.02 | 0.02 | 91 | 1011.2 |
| 20260906083054 | 69 | 0 | 0.0 | 0.0 | 0.01 | 0.01 | 0.01 | 90 | 1011.4 |
| 20260906081554 | 70 | 0 | 0.0 | 0.0 | 0.00 | 0.00 | 0.00 | 87 | 1011.5 |
| 20260906080053 | 71 | 0 | 0.0 | 0.0 | 0.00 | 0.00 | 0.00 | 83 | 1011.6 |
| 20260906074550 | 71 | 0 | 0.0 | 0.0 | 0.00 | 0.00 | 0.00 | 78 | 1011.3 |
| 20260906073042 | 72 | 0 | 0.0 | 0.0 | 0.00 | 0.00 | 0.00 | 80 | 1011.4 |
| 20260906071548 | 72 | 0 | 0.0 | 0.0 | 0.00 | 0.00 | 0.00 | 80 | 1011.4 |
| 20260906070046 | 72 | 0 | 0.0 | 0.0 | 0.00 | 0.00 | 0.00 | 80 | 1011.4 |
| 20260906064539 | 72 | 0 | 0.0 | 0.0 | 0.00 | 0.00 | 0.00 | 79 | 1011.3 |
| 20260906063051 | 72 | 0 | 0.0 | 0.0 | 0.00 | 0.00 | 0.00 | 79 | 1011.4 |
| 20260906061547 | 72 | 0 | 0.0 | 0.0 | 0.00 | 0.00 | 0.00 | 77 | 1011.3 |
| 20260906060048 | 73 | 0 | 0.0 | 0.0 | 0.00 | 0.00 | 0.00 | 75 | 1011.4 |
| 20260906054554 | 73 | 0 | 0.0 | 0.0 | 0.00 | 0.00 | 0.00 | 73 | 1011.4 |
| 20260906053047 | 73 | 67 | 0.0 | 1.0 | 0.00 | 0.00 | 0.00 | 72 | 1011.4 |
| 20260906051546 | 73 | 0 | 0.0 | 0.0 | 0.00 | 0.00 | 0.00 | 72 | 1011.4 |
| 20260906050047 | 73 | 0 | 0.0 | 0.0 | 0.00 | 0.00 | 0.00 | 70 | 1011.2 |
| 20260906044554 | 73 | 0 | 0.0 | 0.0 | 0.00 | 0.00 | 0.00 | 70 | 1011.3 |
| 20260906043048 | 73 | 0 | 0.0 | 1.0 | 0.00 | 0.00 | 0.00 | 69 | 1011.3 |
| 20260906041547 | 73 | 0 | 0.0 | 1.0 | 0.00 | 0.00 | 0.00 | 69 | 1011.3 |
| 20260906040110 | 73 | 0 | 0.0 | 1.0 | 0.00 | 0.00 | 0.00 | 69 | 1011.2 |
| 20260906034559 | 74 | 0 | 0.0 | 0.0 | 0.00 | 0.00 | 0.00 | 68 | 1011.2 |
| 20260906033045 | 74 | 0 | 0.0 | 0.0 | 0.00 | 0.00 | 0.00 | 68 | 1011.3 |
| 20260906031550 | 74 | 0 | 0.0 | 0.0 | 0.00 | 0.00 | 0.00 | 68 | 1011.1 |
| 20260906030054 | 74 | 0 | 0.0 | 0.0 | 0.00 | 0.00 | 0.00 | 71 | 1010.9 |
| 20260906024546 | 74 | 0 | 0.0 | 0.0 | 0.00 | 0.00 | 0.00 | 72 | 1010.9 |
| 20260906023051 | 75 | 0 | 0.0 | 2.0 | 0.00 | 0.00 | 0.00 | 72 | 1010.8 |
| 20260906021559 | 76 | 0 | 0.0 | 1.0 | 0.00 | 0.00 | 0.00 | 69 | 1010.7 |
| 20260906020058 | 77 | 266 | 0.0 | 2.0 | 0.00 | 0.00 | 0.00 | 66 | 1010.8 |
| 20260906014555 | 77 | 0 | 0.0 | 4.0 | 0.00 | 0.00 | 0.00 | 62 | 1010.9 |
| 20260906013051 | 78 | 289 | 1.0 | 4.0 | 0.00 | 0.00 | 0.00 | 56 | 1010.9 |
| 20260906011550 | 79 | 253 | 2.0 | 5.0 | 0.00 | 0.00 | 0.00 | 51 | 1011.0 |
| 20260906010047 | 80 | 238 | 1.0 | 7.0 | 0.00 | 0.00 | 0.00 | 48 | 1010.9 |
| 20260906004545 | 82 | 267 | 1.0 | 4.0 | 0.00 | 0.00 | 0.00 | 46 | 1010.9 |
| 20260906003050 | 83 | 275 | 1.0 | 4.0 | 0.00 | 0.00 | 0.00 | 48 | 1010.8 |
| 20260906001557 | 83 | 273 | 2.0 | 6.0 | 0.00 | 0.00 | 0.00 | 46 | 1010.9 |
| 20260906000047 | 84 | 259 | 1.0 | 7.0 | 0.00 | 0.00 | 0.00 | 46 | 1010.9 |
| 20260905234545 | 84 | 240 | 2.0 | 8.0 | 0.00 | 0.00 | 0.00 | 41 | 1011.0 |
| 20260905233047 | 85 | 257 | 2.0 | 5.0 | 0.00 | 0.00 | 0.00 | 41 | 1010.8 |
| 20260905231549 | 85 | 295 | 2.0 | 9.0 | 0.00 | 0.00 | 0.00 | 39 | 1010.8 |
| 20260905230055 | 0 | 220 | 2.0 | 2.0 | 0.00 | 0.00 | 0.00 | 36 | 1011.0 |
| 20260905224557 | 86 | 2.0 | 5.0 | 0.00 | 0.00 | 0.00 | 41 | 1011.0 | |
| 20260905223047 | 86 | 267 | 3.0 | 8.0 | 0.00 | 0.00 | 0.00 | 40 | 1011.0 |
| 20260905221550 | 86 | 262 | 2.0 | 9.0 | 0.00 | 0.00 | 0.00 | 45 | 1011.2 |
| 20260905220047 | 86 | 218 | 3.0 | 7.0 | 0.00 | 0.00 | 0.00 | 46 | 1011.2 |
| 20260905214553 | 86 | 269 | 2.0 | 8.0 | 0.00 | 0.00 | 0.00 | 50 | 1011.3 |
| 20260905213047 | 87 | 263 | 2.0 | 8.0 | 0.00 | 0.00 | 0.00 | 49 | 1011.5 |
| 20260905211550 | 88 | 242 | 3.0 | 6.0 | 0.00 | 0.00 | 0.00 | 49 | 1011.6 |
| 20260905210108 | 86 | 281 | 2.0 | 6.0 | 0.00 | 0.00 | 0.00 | 49 | 1011.6 |
| 20260905204549 | 86 | 245 | 2.0 | 7.0 | 0.00 | 0.00 | 0.00 | 48 | 1011.7 |
| 20260905203049 | 86 | 225 | 3.0 | 8.0 | 0.00 | 0.00 | 0.00 | 47 | 1011.8 |
| 20260905201555 | 87 | 261 | 2.0 | 6.0 | 0.00 | 0.00 | 0.00 | 46 | 1012.0 |
| 20260905200058 | 84 | 301 | 2.0 | 5.0 | 0.00 | 0.00 | 0.00 | 53 | 1012.1 |
| 20260905194552 | 83 | 316 | 1.0 | 5.0 | 0.00 | 0.00 | 0.00 | 53 | 1012.2 |
| 20260905193049 | 81 | 226 | 2.0 | 4.0 | 0.00 | 0.00 | 0.00 | 56 | 1012.4 |
| 20260905191548 | 78 | 0 | 0.0 | 4.0 | 0.00 | 0.00 | 0.00 | 62 | 1012.9 |
| 20260905190047 | 78 | 270 | 1.0 | 4.0 | 0.00 | 0.00 | 0.00 | 63 | 1012.9 |
| 20260905184606 | 79 | 244 | 2.0 | 4.0 | 0.00 | 0.00 | 0.00 | 60 | 1013.0 |
| 20260905183049 | 79 | 265 | 1.0 | 3.0 | 0.00 | 0.00 | 0.00 | 56 | 1013.0 |
| 20260905181557 | 79 | 0 | 1.0 | 4.0 | 0.00 | 0.00 | 0.00 | 57 | 1013.1 |
| 20260905180100 | 78 | 243 | 1.0 | 3.0 | 0.00 | 0.00 | 0.00 | 58 | 1013.1 |
| 20260905174554 | 77 | 295 | 1.0 | 3.0 | 0.00 | 0.00 | 0.00 | 59 | 1013.0 |
| 20260905173045 | 76 | 261 | 1.0 | 4.0 | 0.00 | 0.00 | 0.00 | 62 | 1013.0 |
| 20260905171603 | 75 | 337 | 1.0 | 4.0 | 0.00 | 0.00 | 0.00 | 63 | 1012.8 |
| 20260905170055 | 74 | 316 | 1.0 | 3.0 | 0.00 | 0.00 | 0.00 | 64 | 1013.0 |
| 20260905164549 | 73 | 0 | 0.0 | 3.0 | 0.00 | 0.00 | 0.00 | 67 | 1013.0 |
| 20260905163053 | 73 | 240 | 0.0 | 1.0 | 0.00 | 0.00 | 0.00 | 73 | 1012.8 |